sensor_id;sensor_type;location;lat;lon;timestamp;temperature;humidity
12557;DHT22;6344;49.932;8.308;2023-05-20T00:01:49;14.70;1.00
12557;DHT22;6344;49.932;8.308;2023-05-20T00:04:15;14.70;1.00
12557;DHT22;6344;49.932;8.308;2023-05-20T00:06:42;14.70;1.00
12557;DHT22;6344;49.932;8.308;2023-05-20T00:09:08;14.70;1.00
12557;DHT22;6344;49.932;8.308;2023-05-20T00:11:35;14.80;1.00
12557;DHT22;6344;49.932;8.308;2023-05-20T00:14:02;14.80;1.00
12557;DHT22;6344;49.932;8.308;2023-05-20T00:16:30;14.80;1.00
12557;DHT22;6344;49.932;8.308;2023-05-20T00:18:57;14.70;1.00
12557;DHT22;6344;49.932;8.308;2023-05-20T00:21:23;14.60;1.00
12557;DHT22;6344;49.932;8.308;2023-05-20T00:23:50;14.60;1.00
12557;DHT22;6344;49.932;8.308;2023-05-20T00:26:17;14.60;1.00
12557;DHT22;6344;49.932;8.308;2023-05-20T00:28:45;14.60;1.00
12557;DHT22;6344;49.932;8.308;2023-05-20T00:31:12;14.50;1.00
12557;DHT22;6344;49.932;8.308;2023-05-20T00:33:40;14.50;1.00
12557;DHT22;6344;49.932;8.308;2023-05-20T00:36:07;14.50;1.00
12557;DHT22;6344;49.932;8.308;2023-05-20T00:38:34;14.50;1.00
12557;DHT22;6344;49.932;8.308;2023-05-20T00:41:00;14.40;1.00
12557;DHT22;6344;49.932;8.308;2023-05-20T00:43:27;14.40;1.00
12557;DHT22;6344;49.932;8.308;2023-05-20T00:45:54;14.40;1.00
12557;DHT22;6344;49.932;8.308;2023-05-20T00:48:21;14.30;1.00
12557;DHT22;6344;49.932;8.308;2023-05-20T00:50:49;14.20;1.00
12557;DHT22;6344;49.932;8.308;2023-05-20T00:53:16;14.10;1.00
12557;DHT22;6344;49.932;8.308;2023-05-20T00:55:43;14.00;1.00
12557;DHT22;6344;49.932;8.308;2023-05-20T00:58:10;14.00;1.00
12557;DHT22;6344;49.932;8.308;2023-05-20T01:00:38;13.90;1.00
12557;DHT22;6344;49.932;8.308;2023-05-20T01:03:04;13.80;1.00
12557;DHT22;6344;49.932;8.308;2023-05-20T01:05:31;13.80;1.00
12557;DHT22;6344;49.932;8.308;2023-05-20T01:07:59;13.70;1.00
12557;DHT22;6344;49.932;8.308;2023-05-20T01:10:27;13.70;1.00
12557;DHT22;6344;49.932;8.308;2023-05-20T01:12:58;13.70;1.00
12557;DHT22;6344;49.932;8.308;2023-05-20T01:15:27;13.60;1.00
12557;DHT22;6344;49.932;8.308;2023-05-20T01:17:57;13.50;1.00
12557;DHT22;6344;49.932;8.308;2023-05-20T01:20:27;13.50;1.00
12557;DHT22;6344;49.932;8.308;2023-05-20T01:22:56;13.60;1.00
12557;DHT22;6344;49.932;8.308;2023-05-20T01:25:23;13.60;1.00
12557;DHT22;6344;49.932;8.308;2023-05-20T01:27:51;13.50;1.00
12557;DHT22;6344;49.932;8.308;2023-05-20T01:30:19;13.40;1.00
12557;DHT22;6344;49.932;8.308;2023-05-20T01:32:49;13.20;1.00
12557;DHT22;6344;49.932;8.308;2023-05-20T01:35:17;13.30;1.00
12557;DHT22;6344;49.932;8.308;2023-05-20T01:37:44;13.30;1.00
12557;DHT22;6344;49.932;8.308;2023-05-20T01:40:14;13.20;1.00
12557;DHT22;6344;49.932;8.308;2023-05-20T01:42:42;13.00;1.00
12557;DHT22;6344;49.932;8.308;2023-05-20T01:45:10;13.00;1.00
12557;DHT22;6344;49.932;8.308;2023-05-20T01:47:37;12.90;1.00
12557;DHT22;6344;49.932;8.308;2023-05-20T01:50:05;12.90;1.00
12557;DHT22;6344;49.932;8.308;2023-05-20T01:52:32;12.80;1.00
12557;DHT22;6344;49.932;8.308;2023-05-20T01:54:59;12.80;1.00
12557;DHT22;6344;49.932;8.308;2023-05-20T01:57:27;12.90;1.00
12557;DHT22;6344;49.932;8.308;2023-05-20T01:59:54;12.80;1.00
12557;DHT22;6344;49.932;8.308;2023-05-20T02:02:20;12.70;1.00
12557;DHT22;6344;49.932;8.308;2023-05-20T02:04:49;12.70;1.00
12557;DHT22;6344;49.932;8.308;2023-05-20T02:07:17;12.70;1.00
12557;DHT22;6344;49.932;8.308;2023-05-20T02:09:44;12.60;1.00
12557;DHT22;6344;49.932;8.308;2023-05-20T02:12:10;12.60;1.00
12557;DHT22;6344;49.932;8.308;2023-05-20T02:14:42;12.50;1.00
12557;DHT22;6344;49.932;8.308;2023-05-20T02:17:08;12.50;1.00
12557;DHT22;6344;49.932;8.308;2023-05-20T02:19:35;12.30;1.00
12557;DHT22;6344;49.932;8.308;2023-05-20T02:22:02;12.20;1.00
12557;DHT22;6344;49.932;8.308;2023-05-20T02:24:28;12.20;1.00
12557;DHT22;6344;49.932;8.308;2023-05-20T02:26:55;12.00;1.00
12557;DHT22;6344;49.932;8.308;2023-05-20T02:29:23;11.90;1.00
12557;DHT22;6344;49.932;8.308;2023-05-20T02:31:51;12.00;1.00
12557;DHT22;6344;49.932;8.308;2023-05-20T02:34:19;11.80;1.00
12557;DHT22;6344;49.932;8.308;2023-05-20T02:36:46;11.80;1.00
12557;DHT22;6344;49.932;8.308;2023-05-20T02:39:12;11.80;1.00
12557;DHT22;6344;49.932;8.308;2023-05-20T02:41:39;11.90;1.00
12557;DHT22;6344;49.932;8.308;2023-05-20T02:44:06;11.90;1.00
12557;DHT22;6344;49.932;8.308;2023-05-20T02:46:33;11.80;1.00
12557;DHT22;6344;49.932;8.308;2023-05-20T02:49:01;11.90;1.00
12557;DHT22;6344;49.932;8.308;2023-05-20T02:51:28;11.80;1.00
12557;DHT22;6344;49.932;8.308;2023-05-20T02:53:56;11.80;3.40
12557;DHT22;6344;49.932;8.308;2023-05-20T02:56:22;12.00;1.00
12557;DHT22;6344;49.932;8.308;2023-05-20T02:58:49;12.00;1.00
12557;DHT22;6344;49.932;8.308;2023-05-20T03:01:16;12.10;1.00
12557;DHT22;6344;49.932;8.308;2023-05-20T03:03:43;12.20;1.00
12557;DHT22;6344;49.932;8.308;2023-05-20T03:06:11;12.30;1.00
12557;DHT22;6344;49.932;8.308;2023-05-20T03:08:37;12.30;1.00
12557;DHT22;6344;49.932;8.308;2023-05-20T03:11:07;12.40;1.00
12557;DHT22;6344;49.932;8.308;2023-05-20T03:13:33;12.50;1.00
12557;DHT22;6344;49.932;8.308;2023-05-20T03:16:00;12.50;1.00
12557;DHT22;6344;49.932;8.308;2023-05-20T03:18:27;12.50;1.00
12557;DHT22;6344;49.932;8.308;2023-05-20T03:20:53;12.60;1.00
12557;DHT22;6344;49.932;8.308;2023-05-20T03:23:22;12.60;1.00
12557;DHT22;6344;49.932;8.308;2023-05-20T03:25:48;12.90;1.00
12557;DHT22;6344;49.932;8.308;2023-05-20T03:28:15;12.80;1.00
12557;DHT22;6344;49.932;8.308;2023-05-20T03:30:41;12.80;1.00
12557;DHT22;6344;49.932;8.308;2023-05-20T03:33:08;12.90;1.00
12557;DHT22;6344;49.932;8.308;2023-05-20T03:35:35;13.00;1.00
12557;DHT22;6344;49.932;8.308;2023-05-20T03:38:01;13.00;1.00
12557;DHT22;6344;49.932;8.308;2023-05-20T03:40:29;13.10;1.00
12557;DHT22;6344;49.932;8.308;2023-05-20T03:42:56;13.10;1.00
12557;DHT22;6344;49.932;8.308;2023-05-20T03:45:23;13.10;1.00
12557;DHT22;6344;49.932;8.308;2023-05-20T03:47:49;13.20;1.00
12557;DHT22;6344;49.932;8.308;2023-05-20T03:50:16;13.20;1.00
12557;DHT22;6344;49.932;8.308;2023-05-20T03:52:43;13.10;1.00
12557;DHT22;6344;49.932;8.308;2023-05-20T03:55:09;13.00;1.00
12557;DHT22;6344;49.932;8.308;2023-05-20T03:57:37;13.10;1.00
12557;DHT22;6344;49.932;8.308;2023-05-20T04:00:05;13.00;1.00
12557;DHT22;6344;49.932;8.308;2023-05-20T04:02:35;13.00;1.00
12557;DHT22;6344;49.932;8.308;2023-05-20T04:05:03;13.10;1.00
12557;DHT22;6344;49.932;8.308;2023-05-20T04:07:29;13.10;1.00
12557;DHT22;6344;49.932;8.308;2023-05-20T04:09:56;13.10;1.00
12557;DHT22;6344;49.932;8.308;2023-05-20T04:12:23;13.00;1.00
12557;DHT22;6344;49.932;8.308;2023-05-20T04:14:56;13.00;1.00
12557;DHT22;6344;49.932;8.308;2023-05-20T04:17:25;13.20;1.00
12557;DHT22;6344;49.932;8.308;2023-05-20T04:19:52;13.20;1.00
12557;DHT22;6344;49.932;8.308;2023-05-20T04:22:19;13.30;1.00
12557;DHT22;6344;49.932;8.308;2023-05-20T04:24:46;13.30;1.00
12557;DHT22;6344;49.932;8.308;2023-05-20T04:27:13;13.40;1.00
12557;DHT22;6344;49.932;8.308;2023-05-20T04:29:40;13.50;1.00
12557;DHT22;6344;49.932;8.308;2023-05-20T04:32:12;13.60;1.00
12557;DHT22;6344;49.932;8.308;2023-05-20T04:34:39;13.60;1.00
12557;DHT22;6344;49.932;8.308;2023-05-20T04:37:05;13.60;1.00
12557;DHT22;6344;49.932;8.308;2023-05-20T04:39:33;13.60;1.00
12557;DHT22;6344;49.932;8.308;2023-05-20T04:42:00;13.60;1.00
12557;DHT22;6344;49.932;8.308;2023-05-20T04:44:27;13.70;1.00
12557;DHT22;6344;49.932;8.308;2023-05-20T04:46:54;13.70;1.00
12557;DHT22;6344;49.932;8.308;2023-05-20T04:49:23;13.80;1.00
12557;DHT22;6344;49.932;8.308;2023-05-20T04:51:50;13.90;1.00
12557;DHT22;6344;49.932;8.308;2023-05-20T04:54:19;13.90;1.00
12557;DHT22;6344;49.932;8.308;2023-05-20T04:56:46;14.00;1.00
12557;DHT22;6344;49.932;8.308;2023-05-20T04:59:12;13.90;1.00
12557;DHT22;6344;49.932;8.308;2023-05-20T05:01:39;13.90;1.00
12557;DHT22;6344;49.932;8.308;2023-05-20T05:04:06;14.00;1.00
12557;DHT22;6344;49.932;8.308;2023-05-20T05:06:34;14.00;1.00
12557;DHT22;6344;49.932;8.308;2023-05-20T05:09:00;14.00;1.00
12557;DHT22;6344;49.932;8.308;2023-05-20T05:11:27;14.10;1.00
12557;DHT22;6344;49.932;8.308;2023-05-20T05:13:54;14.10;1.00
12557;DHT22;6344;49.932;8.308;2023-05-20T05:16:21;14.00;1.00
12557;DHT22;6344;49.932;8.308;2023-05-20T05:18:47;14.10;1.00
12557;DHT22;6344;49.932;8.308;2023-05-20T05:21:14;14.10;1.00
12557;DHT22;6344;49.932;8.308;2023-05-20T05:23:42;14.10;1.00
12557;DHT22;6344;49.932;8.308;2023-05-20T05:26:08;14.10;1.00
12557;DHT22;6344;49.932;8.308;2023-05-20T05:28:35;14.20;1.00
12557;DHT22;6344;49.932;8.308;2023-05-20T05:31:02;14.10;1.00
12557;DHT22;6344;49.932;8.308;2023-05-20T05:33:29;14.20;1.00
12557;DHT22;6344;49.932;8.308;2023-05-20T05:35:56;14.20;1.00
12557;DHT22;6344;49.932;8.308;2023-05-20T05:38:23;14.40;1.00
12557;DHT22;6344;49.932;8.308;2023-05-20T05:40:52;14.40;1.00
12557;DHT22;6344;49.932;8.308;2023-05-20T05:43:18;14.50;1.00
12557;DHT22;6344;49.932;8.308;2023-05-20T05:45:45;14.60;1.00
12557;DHT22;6344;49.932;8.308;2023-05-20T05:48:11;14.70;1.00
12557;DHT22;6344;49.932;8.308;2023-05-20T05:50:38;14.90;1.00
12557;DHT22;6344;49.932;8.308;2023-05-20T05:53:05;15.30;1.00
12557;DHT22;6344;49.932;8.308;2023-05-20T05:55:31;16.00;1.00
12557;DHT22;6344;49.932;8.308;2023-05-20T05:57:59;16.30;1.00
12557;DHT22;6344;49.932;8.308;2023-05-20T06:00:26;16.60;1.00
12557;DHT22;6344;49.932;8.308;2023-05-20T06:02:52;16.60;1.00
12557;DHT22;6344;49.932;8.308;2023-05-20T06:05:19;16.80;1.00
12557;DHT22;6344;49.932;8.308;2023-05-20T06:07:46;16.80;1.00
12557;DHT22;6344;49.932;8.308;2023-05-20T06:10:12;16.90;1.00
12557;DHT22;6344;49.932;8.308;2023-05-20T06:12:39;16.90;1.00
12557;DHT22;6344;49.932;8.308;2023-05-20T06:15:08;16.90;1.00
12557;DHT22;6344;49.932;8.308;2023-05-20T06:17:35;16.90;1.00
12557;DHT22;6344;49.932;8.308;2023-05-20T06:20:02;17.10;1.00
12557;DHT22;6344;49.932;8.308;2023-05-20T06:22:29;17.20;1.00
12557;DHT22;6344;49.932;8.308;2023-05-20T06:24:55;17.30;1.00
12557;DHT22;6344;49.932;8.308;2023-05-20T06:27:25;17.40;1.00
12557;DHT22;6344;49.932;8.308;2023-05-20T06:29:51;17.40;1.00
12557;DHT22;6344;49.932;8.308;2023-05-20T06:32:19;17.50;1.00
12557;DHT22;6344;49.932;8.308;2023-05-20T06:34:46;17.60;1.00
12557;DHT22;6344;49.932;8.308;2023-05-20T06:37:12;17.60;1.00
12557;DHT22;6344;49.932;8.308;2023-05-20T06:39:39;18.00;1.00
12557;DHT22;6344;49.932;8.308;2023-05-20T06:42:06;18.10;1.00
12557;DHT22;6344;49.932;8.308;2023-05-20T06:44:32;17.70;1.00
12557;DHT22;6344;49.932;8.308;2023-05-20T06:46:59;17.30;1.00
12557;DHT22;6344;49.932;8.308;2023-05-20T06:49:27;17.20;1.00
12557;DHT22;6344;49.932;8.308;2023-05-20T06:51:54;17.10;1.00
12557;DHT22;6344;49.932;8.308;2023-05-20T06:54:20;16.70;1.00
12557;DHT22;6344;49.932;8.308;2023-05-20T06:56:47;16.60;1.00
12557;DHT22;6344;49.932;8.308;2023-05-20T06:59:14;16.60;1.00
12557;DHT22;6344;49.932;8.308;2023-05-20T07:01:40;16.80;1.00
12557;DHT22;6344;49.932;8.308;2023-05-20T07:04:07;17.30;1.00
12557;DHT22;6344;49.932;8.308;2023-05-20T07:06:35;17.10;1.00
12557;DHT22;6344;49.932;8.308;2023-05-20T07:09:01;17.00;1.00
12557;DHT22;6344;49.932;8.308;2023-05-20T07:11:29;17.00;1.00
12557;DHT22;6344;49.932;8.308;2023-05-20T07:13:56;17.20;1.00
12557;DHT22;6344;49.932;8.308;2023-05-20T07:16:22;17.40;1.00
12557;DHT22;6344;49.932;8.308;2023-05-20T07:18:49;17.90;1.00
12557;DHT22;6344;49.932;8.308;2023-05-20T07:21:16;17.60;1.00
12557;DHT22;6344;49.932;8.308;2023-05-20T07:23:44;17.60;1.00
12557;DHT22;6344;49.932;8.308;2023-05-20T07:26:10;17.50;1.00
12557;DHT22;6344;49.932;8.308;2023-05-20T07:28:37;17.30;1.00
12557;DHT22;6344;49.932;8.308;2023-05-20T07:31:04;17.00;1.00
12557;DHT22;6344;49.932;8.308;2023-05-20T07:33:31;16.90;1.00
12557;DHT22;6344;49.932;8.308;2023-05-20T07:35:57;16.90;1.00
12557;DHT22;6344;49.932;8.308;2023-05-20T07:38:24;17.00;1.00
12557;DHT22;6344;49.932;8.308;2023-05-20T07:40:52;17.10;1.00
12557;DHT22;6344;49.932;8.308;2023-05-20T07:43:19;17.60;1.00
12557;DHT22;6344;49.932;8.308;2023-05-20T07:45:46;18.00;1.00
12557;DHT22;6344;49.932;8.308;2023-05-20T07:48:13;18.40;1.00
12557;DHT22;6344;49.932;8.308;2023-05-20T07:50:39;18.50;1.00
12557;DHT22;6344;49.932;8.308;2023-05-20T07:53:06;18.30;1.00
12557;DHT22;6344;49.932;8.308;2023-05-20T07:55:33;18.30;1.00
12557;DHT22;6344;49.932;8.308;2023-05-20T07:58:02;18.50;1.00
12557;DHT22;6344;49.932;8.308;2023-05-20T08:00:28;18.30;1.00
12557;DHT22;6344;49.932;8.308;2023-05-20T08:02:55;18.20;1.00
12557;DHT22;6344;49.932;8.308;2023-05-20T08:05:22;17.90;1.00
12557;DHT22;6344;49.932;8.308;2023-05-20T08:07:48;18.20;1.00
12557;DHT22;6344;49.932;8.308;2023-05-20T08:10:15;18.00;1.00
12557;DHT22;6344;49.932;8.308;2023-05-20T08:12:41;18.10;1.00
12557;DHT22;6344;49.932;8.308;2023-05-20T08:15:10;18.00;1.00
12557;DHT22;6344;49.932;8.308;2023-05-20T08:17:37;18.40;1.00
12557;DHT22;6344;49.932;8.308;2023-05-20T08:20:05;18.20;1.00
12557;DHT22;6344;49.932;8.308;2023-05-20T08:22:32;18.40;1.00
12557;DHT22;6344;49.932;8.308;2023-05-20T08:24:59;18.60;1.00
12557;DHT22;6344;49.932;8.308;2023-05-20T08:27:25;18.80;1.00
12557;DHT22;6344;49.932;8.308;2023-05-20T08:29:52;19.10;1.00
12557;DHT22;6344;49.932;8.308;2023-05-20T08:32:20;18.90;1.00
12557;DHT22;6344;49.932;8.308;2023-05-20T08:34:46;19.00;1.00
12557;DHT22;6344;49.932;8.308;2023-05-20T08:37:14;19.50;1.00
12557;DHT22;6344;49.932;8.308;2023-05-20T08:39:40;19.80;1.00
12557;DHT22;6344;49.932;8.308;2023-05-20T08:42:07;19.90;1.00
12557;DHT22;6344;49.932;8.308;2023-05-20T08:44:36;20.50;1.00
12557;DHT22;6344;49.932;8.308;2023-05-20T08:47:04;20.50;1.00
12557;DHT22;6344;49.932;8.308;2023-05-20T08:49:32;20.30;1.00
12557;DHT22;6344;49.932;8.308;2023-05-20T08:52:00;19.90;1.00
12557;DHT22;6344;49.932;8.308;2023-05-20T08:54:34;20.10;1.00
12557;DHT22;6344;49.932;8.308;2023-05-20T08:57:03;19.90;1.00
12557;DHT22;6344;49.932;8.308;2023-05-20T08:59:30;19.30;1.00
12557;DHT22;6344;49.932;8.308;2023-05-20T09:01:57;19.20;1.00
12557;DHT22;6344;49.932;8.308;2023-05-20T09:04:24;19.30;1.00
12557;DHT22;6344;49.932;8.308;2023-05-20T09:06:52;19.80;1.00
12557;DHT22;6344;49.932;8.308;2023-05-20T09:09:19;20.30;1.00
12557;DHT22;6344;49.932;8.308;2023-05-20T09:11:46;20.40;1.00
12557;DHT22;6344;49.932;8.308;2023-05-20T09:14:13;21.10;1.00
12557;DHT22;6344;49.932;8.308;2023-05-20T09:16:39;21.60;1.00
12557;DHT22;6344;49.932;8.308;2023-05-20T09:19:06;21.80;1.00
12557;DHT22;6344;49.932;8.308;2023-05-20T09:21:34;21.70;1.00
12557;DHT22;6344;49.932;8.308;2023-05-20T09:24:03;21.10;1.00
12557;DHT22;6344;49.932;8.308;2023-05-20T09:26:30;20.50;1.00
12557;DHT22;6344;49.932;8.308;2023-05-20T09:28:57;19.90;1.00
12557;DHT22;6344;49.932;8.308;2023-05-20T09:31:25;19.80;1.00
12557;DHT22;6344;49.932;8.308;2023-05-20T09:33:53;20.10;1.00
12557;DHT22;6344;49.932;8.308;2023-05-20T09:36:22;20.70;1.00
12557;DHT22;6344;49.932;8.308;2023-05-20T09:38:51;21.90;1.00
12557;DHT22;6344;49.932;8.308;2023-05-20T09:41:22;22.10;1.00
12557;DHT22;6344;49.932;8.308;2023-05-20T09:43:51;22.50;1.00
12557;DHT22;6344;49.932;8.308;2023-05-20T09:46:19;22.70;1.00
12557;DHT22;6344;49.932;8.308;2023-05-20T09:48:46;23.20;1.00
12557;DHT22;6344;49.932;8.308;2023-05-20T09:51:13;22.60;1.00
12557;DHT22;6344;49.932;8.308;2023-05-20T09:53:41;22.20;1.00
12557;DHT22;6344;49.932;8.308;2023-05-20T09:56:08;21.30;1.00
12557;DHT22;6344;49.932;8.308;2023-05-20T09:58:37;21.30;1.00
12557;DHT22;6344;49.932;8.308;2023-05-20T10:01:05;22.00;1.00
12557;DHT22;6344;49.932;8.308;2023-05-20T10:03:32;23.10;1.00
12557;DHT22;6344;49.932;8.308;2023-05-20T10:06:21;22.90;1.00
12557;DHT22;6344;49.932;8.308;2023-05-20T10:09:00;23.10;1.00
12557;DHT22;6344;49.932;8.308;2023-05-20T10:11:36;22.90;1.00
12557;DHT22;6344;49.932;8.308;2023-05-20T10:14:24;23.70;1.00
12557;DHT22;6344;49.932;8.308;2023-05-20T10:16:58;23.80;1.00
12557;DHT22;6344;49.932;8.308;2023-05-20T10:19:33;23.30;1.00
12557;DHT22;6344;49.932;8.308;2023-05-20T10:22:01;22.10;1.00
12557;DHT22;6344;49.932;8.308;2023-05-20T10:24:29;20.90;1.00
12557;DHT22;6344;49.932;8.308;2023-05-20T10:26:57;20.30;1.00
12557;DHT22;6344;49.932;8.308;2023-05-20T10:29:27;20.40;1.00
12557;DHT22;6344;49.932;8.308;2023-05-20T10:31:54;20.00;1.00
12557;DHT22;6344;49.932;8.308;2023-05-20T10:34:21;20.00;1.00
12557;DHT22;6344;49.932;8.308;2023-05-20T10:36:57;19.90;1.00
12557;DHT22;6344;49.932;8.308;2023-05-20T10:39:25;19.80;1.00
12557;DHT22;6344;49.932;8.308;2023-05-20T10:41:52;19.70;1.00
12557;DHT22;6344;49.932;8.308;2023-05-20T10:44:19;20.20;1.00
12557;DHT22;6344;49.932;8.308;2023-05-20T10:47:00;21.20;1.00
12557;DHT22;6344;49.932;8.308;2023-05-20T10:49:32;22.00;1.00
12557;DHT22;6344;49.932;8.308;2023-05-20T10:51:59;22.20;1.00
12557;DHT22;6344;49.932;8.308;2023-05-20T10:54:26;22.40;1.00
12557;DHT22;6344;49.932;8.308;2023-05-20T10:56:53;22.60;1.00
12557;DHT22;6344;49.932;8.308;2023-05-20T10:59:21;22.20;1.00
12557;DHT22;6344;49.932;8.308;2023-05-20T11:01:50;22.80;1.00
12557;DHT22;6344;49.932;8.308;2023-05-20T11:04:17;22.70;1.00
12557;DHT22;6344;49.932;8.308;2023-05-20T11:06:51;23.20;1.00
12557;DHT22;6344;49.932;8.308;2023-05-20T11:09:18;22.50;1.00
12557;DHT22;6344;49.932;8.308;2023-05-20T11:11:45;22.20;1.00
12557;DHT22;6344;49.932;8.308;2023-05-20T11:14:12;22.50;1.00
12557;DHT22;6344;49.932;8.308;2023-05-20T11:16:39;23.10;1.00
12557;DHT22;6344;49.932;8.308;2023-05-20T11:19:07;23.80;1.00
12557;DHT22;6344;49.932;8.308;2023-05-20T11:21:34;23.60;1.00
12557;DHT22;6344;49.932;8.308;2023-05-20T11:24:07;23.50;1.00
12557;DHT22;6344;49.932;8.308;2023-05-20T11:26:34;23.30;1.00
12557;DHT22;6344;49.932;8.308;2023-05-20T11:29:02;23.00;1.00
12557;DHT22;6344;49.932;8.308;2023-05-20T11:31:29;22.70;1.00
12557;DHT22;6344;49.932;8.308;2023-05-20T11:33:56;23.10;1.00
12557;DHT22;6344;49.932;8.308;2023-05-20T11:36:27;23.10;1.00
12557;DHT22;6344;49.932;8.308;2023-05-20T11:38:56;23.40;1.00
12557;DHT22;6344;49.932;8.308;2023-05-20T11:41:23;23.90;1.00
12557;DHT22;6344;49.932;8.308;2023-05-20T11:43:55;24.20;1.00
12557;DHT22;6344;49.932;8.308;2023-05-20T11:46:22;23.30;1.00
12557;DHT22;6344;49.932;8.308;2023-05-20T11:48:52;23.00;1.00
12557;DHT22;6344;49.932;8.308;2023-05-20T11:51:22;22.70;1.00
12557;DHT22;6344;49.932;8.308;2023-05-20T11:53:51;22.90;1.00
12557;DHT22;6344;49.932;8.308;2023-05-20T11:56:17;23.50;1.00
12557;DHT22;6344;49.932;8.308;2023-05-20T11:58:45;23.10;1.00
12557;DHT22;6344;49.932;8.308;2023-05-20T12:01:12;22.90;1.00
12557;DHT22;6344;49.932;8.308;2023-05-20T12:03:39;23.20;1.00
12557;DHT22;6344;49.932;8.308;2023-05-20T12:06:05;24.10;1.00
12557;DHT22;6344;49.932;8.308;2023-05-20T12:08:32;23.80;1.00
12557;DHT22;6344;49.932;8.308;2023-05-20T12:11:00;23.60;1.00
12557;DHT22;6344;49.932;8.308;2023-05-20T12:13:26;23.60;1.00
12557;DHT22;6344;49.932;8.308;2023-05-20T12:15:53;23.60;1.00
12557;DHT22;6344;49.932;8.308;2023-05-20T12:18:20;23.40;1.00
12557;DHT22;6344;49.932;8.308;2023-05-20T12:20:47;23.20;1.00
12557;DHT22;6344;49.932;8.308;2023-05-20T12:23:13;22.80;1.00
12557;DHT22;6344;49.932;8.308;2023-05-20T12:25:40;23.00;1.00
12557;DHT22;6344;49.932;8.308;2023-05-20T12:28:08;23.10;1.00
12557;DHT22;6344;49.932;8.308;2023-05-20T12:30:35;23.10;1.00
12557;DHT22;6344;49.932;8.308;2023-05-20T12:33:02;22.60;1.00
12557;DHT22;6344;49.932;8.308;2023-05-20T12:35:37;22.40;1.00
12557;DHT22;6344;49.932;8.308;2023-05-20T12:38:04;22.80;1.00
12557;DHT22;6344;49.932;8.308;2023-05-20T12:40:31;22.90;1.00
12557;DHT22;6344;49.932;8.308;2023-05-20T12:43:00;22.90;1.00
12557;DHT22;6344;49.932;8.308;2023-05-20T12:45:29;23.00;1.00
12557;DHT22;6344;49.932;8.308;2023-05-20T12:47:56;22.80;1.00
12557;DHT22;6344;49.932;8.308;2023-05-20T12:50:23;23.00;1.00
12557;DHT22;6344;49.932;8.308;2023-05-20T12:52:50;23.20;1.00
12557;DHT22;6344;49.932;8.308;2023-05-20T12:55:17;23.70;1.00
12557;DHT22;6344;49.932;8.308;2023-05-20T12:57:44;24.60;1.00
12557;DHT22;6344;49.932;8.308;2023-05-20T13:00:12;24.50;1.00
12557;DHT22;6344;49.932;8.308;2023-05-20T13:02:41;24.50;1.00
12557;DHT22;6344;49.932;8.308;2023-05-20T13:05:08;24.00;1.00
12557;DHT22;6344;49.932;8.308;2023-05-20T13:07:35;23.80;1.00
12557;DHT22;6344;49.932;8.308;2023-05-20T13:10:03;24.30;1.00
12557;DHT22;6344;49.932;8.308;2023-05-20T13:12:29;23.80;1.00
12557;DHT22;6344;49.932;8.308;2023-05-20T13:14:56;23.80;1.00
12557;DHT22;6344;49.932;8.308;2023-05-20T13:17:22;23.80;1.00
12557;DHT22;6344;49.932;8.308;2023-05-20T13:19:50;23.90;1.00
12557;DHT22;6344;49.932;8.308;2023-05-20T13:22:17;24.20;1.00
12557;DHT22;6344;49.932;8.308;2023-05-20T13:24:44;23.50;1.00
12557;DHT22;6344;49.932;8.308;2023-05-20T13:27:10;23.80;1.00
12557;DHT22;6344;49.932;8.308;2023-05-20T13:29:37;24.00;1.00
12557;DHT22;6344;49.932;8.308;2023-05-20T13:32:04;23.90;1.00
12557;DHT22;6344;49.932;8.308;2023-05-20T13:34:31;24.20;1.00
12557;DHT22;6344;49.932;8.308;2023-05-20T13:36:59;24.40;1.00
12557;DHT22;6344;49.932;8.308;2023-05-20T13:39:25;24.20;1.00
12557;DHT22;6344;49.932;8.308;2023-05-20T13:41:52;24.40;1.00
12557;DHT22;6344;49.932;8.308;2023-05-20T13:44:19;24.60;1.00
12557;DHT22;6344;49.932;8.308;2023-05-20T13:46:46;24.90;1.00
12557;DHT22;6344;49.932;8.308;2023-05-20T13:49:12;24.20;1.00
12557;DHT22;6344;49.932;8.308;2023-05-20T13:51:39;24.30;1.00
12557;DHT22;6344;49.932;8.308;2023-05-20T13:54:07;24.50;1.00
12557;DHT22;6344;49.932;8.308;2023-05-20T13:56:33;23.60;1.00
12557;DHT22;6344;49.932;8.308;2023-05-20T13:59:00;23.10;1.00
12557;DHT22;6344;49.932;8.308;2023-05-20T14:01:28;22.80;1.00
12557;DHT22;6344;49.932;8.308;2023-05-20T14:03:57;23.10;1.00
12557;DHT22;6344;49.932;8.308;2023-05-20T14:06:23;23.50;1.00
12557;DHT22;6344;49.932;8.308;2023-05-20T14:08:53;23.80;1.00
12557;DHT22;6344;49.932;8.308;2023-05-20T14:11:21;23.00;1.00
12557;DHT22;6344;49.932;8.308;2023-05-20T14:13:48;23.60;1.00
12557;DHT22;6344;49.932;8.308;2023-05-20T14:16:14;24.50;1.00
12557;DHT22;6344;49.932;8.308;2023-05-20T14:18:41;24.90;1.00
12557;DHT22;6344;49.932;8.308;2023-05-20T14:21:08;24.20;1.00
12557;DHT22;6344;49.932;8.308;2023-05-20T14:23:34;23.50;1.00
12557;DHT22;6344;49.932;8.308;2023-05-20T14:26:01;22.90;1.00
12557;DHT22;6344;49.932;8.308;2023-05-20T14:28:29;23.10;1.00
12557;DHT22;6344;49.932;8.308;2023-05-20T14:30:55;23.20;1.00
12557;DHT22;6344;49.932;8.308;2023-05-20T14:33:22;23.20;1.00
12557;DHT22;6344;49.932;8.308;2023-05-20T14:35:48;23.00;1.00
12557;DHT22;6344;49.932;8.308;2023-05-20T14:38:15;22.90;1.00
12557;DHT22;6344;49.932;8.308;2023-05-20T14:40:43;23.10;1.00
12557;DHT22;6344;49.932;8.308;2023-05-20T14:43:09;23.90;1.00
12557;DHT22;6344;49.932;8.308;2023-05-20T14:45:37;24.20;1.00
12557;DHT22;6344;49.932;8.308;2023-05-20T14:48:04;24.50;1.00
12557;DHT22;6344;49.932;8.308;2023-05-20T14:50:31;24.30;1.00
12557;DHT22;6344;49.932;8.308;2023-05-20T14:52:57;24.60;1.00
12557;DHT22;6344;49.932;8.308;2023-05-20T14:55:24;24.00;1.00
12557;DHT22;6344;49.932;8.308;2023-05-20T14:57:50;23.30;1.00
12557;DHT22;6344;49.932;8.308;2023-05-20T15:00:17;23.40;1.00
12557;DHT22;6344;49.932;8.308;2023-05-20T15:02:45;23.20;1.00
12557;DHT22;6344;49.932;8.308;2023-05-20T15:05:11;23.00;1.00
12557;DHT22;6344;49.932;8.308;2023-05-20T15:07:38;23.00;1.00
12557;DHT22;6344;49.932;8.308;2023-05-20T15:10:05;22.90;1.00
12557;DHT22;6344;49.932;8.308;2023-05-20T15:12:33;22.50;1.00
12557;DHT22;6344;49.932;8.308;2023-05-20T15:14:59;22.20;1.00
12557;DHT22;6344;49.932;8.308;2023-05-20T15:17:26;22.00;1.00
12557;DHT22;6344;49.932;8.308;2023-05-20T15:19:54;22.00;1.00
12557;DHT22;6344;49.932;8.308;2023-05-20T15:22:20;21.60;1.00
12557;DHT22;6344;49.932;8.308;2023-05-20T15:24:47;21.40;1.00
12557;DHT22;6344;49.932;8.308;2023-05-20T15:27:14;22.00;1.00
12557;DHT22;6344;49.932;8.308;2023-05-20T15:29:40;21.80;1.00
12557;DHT22;6344;49.932;8.308;2023-05-20T15:32:07;22.50;1.00
12557;DHT22;6344;49.932;8.308;2023-05-20T15:34:33;23.00;1.00
12557;DHT22;6344;49.932;8.308;2023-05-20T15:37:01;22.90;1.00
12557;DHT22;6344;49.932;8.308;2023-05-20T15:39:28;23.20;1.00
12557;DHT22;6344;49.932;8.308;2023-05-20T15:41:55;23.40;1.00
12557;DHT22;6344;49.932;8.308;2023-05-20T15:44:23;23.80;1.00
12557;DHT22;6344;49.932;8.308;2023-05-20T15:46:50;22.80;1.00
12557;DHT22;6344;49.932;8.308;2023-05-20T15:49:17;22.10;1.00
12557;DHT22;6344;49.932;8.308;2023-05-20T15:51:43;22.20;1.00
12557;DHT22;6344;49.932;8.308;2023-05-20T15:54:11;22.10;1.00
12557;DHT22;6344;49.932;8.308;2023-05-20T15:56:38;21.70;1.00
12557;DHT22;6344;49.932;8.308;2023-05-20T15:59:05;21.30;1.00
12557;DHT22;6344;49.932;8.308;2023-05-20T16:01:32;21.40;1.00
12557;DHT22;6344;49.932;8.308;2023-05-20T16:03:59;21.30;1.00